Time;durP1;ratioP1;P1;durP2;ratioP2;P2;SDS_P1;SDS_P2;PMS_P1;PMS_P2;Temp;Humidity;BMP_temperature;BMP_pressure;BME280_temperature;BME280_humidity;BME280_pressure;Samples;Min_cycle;Max_cycle;Signal;HPM_P1;HPM_P2
2023/06/07 00:02:04;;;;;;;7.93;4.03;;;19.70;99.90;;;;;;4996855;28;20026;-69
2023/06/07 00:04:30;;;;;;;8.18;4.35;;;19.50;99.90;;;;;;4997023;28;20026;-69
2023/06/07 00:07:00;;;;;;;9.73;4.13;;;19.60;99.90;;;;;;4996743;28;20045;-69
2023/06/07 00:09:32;;;;;;;5.70;3.13;;;19.50;99.90;;;;;;4996787;28;20022;-69
2023/06/07 00:11:58;;;;;;;6.43;3.58;;;19.40;99.90;;;;;;4996361;28;20026;-70
2023/06/07 00:14:24;;;;;;;6.93;3.28;;;19.50;99.90;;;;;;4997529;28;20041;-68
2023/06/07 00:16:52;;;;;;;7.07;3.47;;;19.50;99.90;;;;;;4997105;28;20027;-68
2023/06/07 00:19:21;;;;;;;9.02;4.03;;;19.40;99.90;;;;;;4996821;28;20022;-69
2023/06/07 00:21:50;;;;;;;7.82;3.80;;;19.50;99.90;;;;;;4997447;28;20073;-69
2023/06/07 00:24:16;;;;;;;6.43;3.55;;;19.40;99.90;;;;;;4997497;28;20023;-69
2023/06/07 00:26:42;;;;;;;6.45;4.00;;;19.50;99.90;;;;;;4996552;28;20022;-69
2023/06/07 00:29:07;;;;;;;11.70;3.30;;;19.50;99.90;;;;;;4997377;28;20122;-70
2023/06/07 00:31:33;;;;;;;8.80;4.07;;;19.50;99.90;;;;;;4996269;28;20046;-71
2023/06/07 00:33:58;;;;;;;6.28;3.65;;;19.40;99.90;;;;;;4996470;28;20030;-71
2023/06/07 00:36:25;;;;;;;4.38;3.42;;;19.40;99.90;;;;;;4996473;28;20023;-69
2023/06/07 00:38:50;;;;;;;6.13;3.33;;;19.40;99.90;;;;;;4997148;28;20030;-71
2023/06/07 00:41:16;;;;;;;7.90;3.90;;;19.40;99.90;;;;;;4996689;28;20041;-70
2023/06/07 00:43:42;;;;;;;10.02;3.42;;;19.40;99.90;;;;;;4996891;28;20023;-71
2023/06/07 00:46:08;;;;;;;7.97;3.83;;;19.50;99.90;;;;;;4997423;28;20030;-69
2023/06/07 00:48:35;;;;;;;7.45;3.95;;;19.50;99.90;;;;;;4996420;28;20100;-69
2023/06/07 00:51:00;;;;;;;7.70;3.63;;;19.50;99.90;;;;;;4996598;28;20126;-69
2023/06/07 00:53:27;;;;;;;9.98;4.18;;;19.60;99.90;;;;;;4997226;28;20113;-71
2023/06/07 00:55:53;;;;;;;8.73;4.22;;;19.50;99.90;;;;;;4999879;28;20030;-69
2023/06/07 00:58:19;;;;;;;6.32;3.47;;;19.50;99.90;;;;;;5000255;28;20031;-71
2023/06/07 01:00:46;;;;;;;3.90;2.92;;;19.60;99.90;;;;;;5000725;28;20085;-69
2023/06/07 01:03:12;;;;;;;4.75;2.88;;;19.80;99.90;;;;;;5000124;28;20038;-70
2023/06/07 01:05:38;;;;;;;8.13;3.17;;;19.80;99.90;;;;;;5000117;28;20030;-69
2023/06/07 01:08:04;;;;;;;4.53;2.95;;;19.80;99.90;;;;;;5000344;28;20026;-70
2023/06/07 01:13:02;;;;;;;6.10;3.03;;;19.70;99.90;;;;;;4981200;28;20047;-68
2023/06/07 01:15:28;;;;;;;6.55;3.10;;;19.60;99.90;;;;;;4980441;28;20030;-66
2023/06/07 01:17:54;;;;;;;6.97;3.08;;;19.60;99.90;;;;;;4980937;28;20022;-67
2023/06/07 01:20:24;;;;;;;6.03;3.50;;;19.60;99.90;;;;;;4979980;28;20023;-66
2023/06/07 01:22:53;;;;;;;5.60;3.17;;;19.50;99.90;;;;;;4960645;29;20114;-66
2023/06/07 01:25:19;;;;;;;5.60;3.58;;;19.40;99.90;;;;;;4961608;28;20030;-66
2023/06/07 01:27:45;;;;;;;5.30;3.50;;;19.40;99.90;;;;;;4960554;29;20035;-66
2023/06/07 01:30:12;;;;;;;7.18;3.75;;;19.30;99.90;;;;;;4960842;29;20027;-67
2023/06/07 01:32:41;;;;;;;7.68;3.20;;;19.30;99.90;;;;;;4960918;29;20186;-67
2023/06/07 01:35:08;;;;;;;8.38;3.50;;;19.10;99.90;;;;;;4960655;29;20028;-66
2023/06/07 01:37:35;;;;;;;6.28;3.95;;;19.00;99.90;;;;;;4960558;29;20028;-66
2023/06/07 01:40:03;;;;;;;6.32;3.47;;;19.00;99.90;;;;;;4961289;28;20119;-66
2023/06/07 01:42:29;;;;;;;4.00;3.40;;;19.00;99.90;;;;;;4960440;29;20027;-66
2023/06/07 01:44:57;;;;;;;5.75;3.40;;;19.10;99.90;;;;;;4960165;29;20070;-66
2023/06/07 01:47:22;;;;;;;6.47;3.50;;;19.10;99.90;;;;;;4960895;29;20110;-66
2023/06/07 01:49:48;;;;;;;8.90;3.55;;;19.00;99.90;;;;;;4961134;29;20086;-66
2023/06/07 01:52:13;;;;;;;10.50;3.50;;;19.00;99.90;;;;;;4961024;29;20025;-66
2023/06/07 01:54:40;;;;;;;7.35;3.58;;;19.10;99.90;;;;;;4960040;29;20027;-67
2023/06/07 01:57:26;;;;;;;5.45;3.45;;;19.00;99.90;;;;;;4960288;29;20039;-66
2023/06/07 02:00:07;;;;;;;6.07;3.63;;;18.90;99.90;;;;;;4960486;29;20106;-66
2023/06/07 02:02:40;;;;;;;7.57;3.33;;;18.90;99.90;;;;;;4960849;28;20027;-66
2023/06/07 02:05:24;;;;;;;11.80;4.47;;;18.90;99.90;;;;;;4959157;28;20027;-66
2023/06/07 02:07:51;;;;;;;8.07;4.03;;;19.00;99.90;;;;;;4959973;29;20082;-66
2023/06/07 02:10:21;;;;;;;6.75;3.83;;;19.00;99.90;;;;;;4960927;28;20016;-66
2023/06/07 02:12:49;;;;;;;5.60;3.78;;;19.00;99.90;;;;;;4959635;29;20034;-66
2023/06/07 02:15:15;;;;;;;6.03;3.60;;;18.90;99.90;;;;;;4960703;29;20031;-66
2023/06/07 02:18:07;;;;;;;7.78;3.75;;;19.00;99.90;;;;;;4959651;29;20109;-66
2023/06/07 02:20:35;;;;;;;6.57;3.70;;;18.90;99.90;;;;;;4972078;28;20070;-66
2023/06/07 02:23:01;;;;;;;6.50;3.75;;;18.80;99.90;;;;;;4959578;29;20122;-66
2023/06/07 02:25:27;;;;;;;6.78;3.55;;;18.90;99.90;;;;;;4959857;29;20114;-66
2023/06/07 02:27:53;;;;;;;6.25;3.58;;;19.00;99.90;;;;;;4959539;29;20057;-66
2023/06/07 02:30:18;;;;;;;4.57;3.38;;;19.00;99.90;;;;;;4959413;29;20035;-67
2023/06/07 02:32:50;;;;;;;6.88;3.63;;;18.90;99.90;;;;;;4959467;29;20027;-68
2023/06/07 02:35:16;;;;;;;;;;;19.00;99.90;;;;;;4960542;29;20031;-68
2023/06/07 02:37:42;;;;;;;6.45;3.60;;;19.00;99.90;;;;;;4959247;29;19913;-67
2023/06/07 02:40:11;;;;;;;9.57;3.30;;;19.00;99.90;;;;;;4959513;29;20027;-68
2023/06/07 02:42:37;;;;;;;9.13;3.50;;;18.90;99.90;;;;;;4958982;29;20023;-68
2023/06/07 02:45:06;;;;;;;5.80;3.28;;;18.90;99.90;;;;;;4959171;29;20050;-68
2023/06/07 02:47:31;;;;;;;5.70;3.30;;;18.90;99.90;;;;;;4959120;29;20027;-67
2023/06/07 02:49:57;;;;;;;5.10;3.65;;;19.00;99.90;;;;;;4959932;29;20024;-68
2023/06/07 02:52:25;;;;;;;7.55;3.63;;;19.00;99.90;;;;;;4958960;29;20030;-67
2023/06/07 02:54:50;;;;;;;5.07;3.72;;;18.90;99.90;;;;;;4958836;29;20034;-68
2023/06/07 02:57:16;;;;;;;8.32;3.47;;;18.90;99.90;;;;;;4960230;29;20027;-68
2023/06/07 02:59:41;;;;;;;5.30;3.58;;;18.90;99.90;;;;;;4958915;29;20028;-68
2023/06/07 03:02:07;;;;;;;5.45;3.67;;;19.00;99.90;;;;;;4958795;29;20047;-68
2023/06/07 03:04:33;;;;;;;7.47;3.85;;;18.80;99.90;;;;;;4959932;29;20031;-68
2023/06/07 03:07:00;;;;;;;4.07;3.28;;;18.90;99.90;;;;;;4959913;29;20102;-68
2023/06/07 03:09:25;;;;;;;5.03;3.50;;;18.90;99.90;;;;;;4958985;29;20035;-68
2023/06/07 03:11:51;;;;;;;6.90;3.83;;;18.90;99.90;;;;;;4958768;29;20090;-68
2023/06/07 03:14:18;;;;;;;5.20;3.70;;;18.90;99.90;;;;;;4959403;29;20030;-68
2023/06/07 03:16:45;;;;;;;6.95;3.70;;;18.80;99.90;;;;;;4959470;28;20026;-68
2023/06/07 03:19:11;;;;;;;5.05;3.42;;;18.80;99.90;;;;;;4958865;29;20031;-68
2023/06/07 03:21:44;;;;;;;8.00;3.97;;;18.70;99.90;;;;;;4958490;29;20082;-68
2023/06/07 03:24:10;;;;;;;5.38;3.58;;;18.60;99.90;;;;;;4959663;29;20027;-67
2023/06/07 03:26:36;;;;;;;8.02;3.78;;;18.70;99.90;;;;;;4959241;29;20023;-68
2023/06/07 03:29:02;;;;;;;3.97;3.47;;;18.70;99.90;;;;;;4959558;29;20050;-68
2023/06/07 03:31:28;;;;;;;5.90;3.85;;;18.60;99.90;;;;;;4958304;29;20030;-68
2023/06/07 03:33:54;;;;;;;6.45;3.70;;;18.60;99.90;;;;;;4958674;29;20078;-67
2023/06/07 03:36:25;;;;;;;6.82;3.88;;;18.60;99.90;;;;;;4958248;29;20027;-68
2023/06/07 03:38:52;;;;;;;5.78;3.90;;;18.40;99.90;;;;;;4958580;29;20024;-69
2023/06/07 03:41:17;;;;;;;9.30;3.95;;;18.30;99.90;;;;;;4959374;29;20062;-69
2023/06/07 03:43:43;;;;;;;9.63;3.95;;;18.40;99.90;;;;;;4958475;29;20027;-69
2023/06/07 03:46:08;;;;;;;9.73;4.10;;;18.40;99.90;;;;;;4958780;29;20031;-69
2023/06/07 03:48:34;;;;;;;9.60;4.47;;;18.40;99.90;;;;;;4958665;29;20031;-69
2023/06/07 03:51:00;;;;;;;9.00;3.97;;;18.40;99.90;;;;;;4958802;29;20034;-69
2023/06/07 03:53:25;;;;;;;6.85;3.85;;;18.40;99.90;;;;;;4957960;29;20027;-69
2023/06/07 03:55:52;;;;;;;6.88;4.40;;;18.50;99.90;;;;;;4958019;29;20074;-69
2023/06/07 03:58:18;;;;;;;11.75;3.95;;;18.50;99.90;;;;;;4958162;29;20027;-69
2023/06/07 04:00:45;;;;;;;6.25;3.40;;;18.50;99.90;;;;;;4958133;29;20047;-69
2023/06/07 04:03:10;;;;;;;12.25;4.35;;;18.50;99.90;;;;;;4958013;29;20058;-69
2023/06/07 04:05:38;;;;;;;10.68;4.53;;;18.40;99.90;;;;;;4959559;29;20019;-69
2023/06/07 04:08:05;;;;;;;8.85;4.38;;;18.50;99.90;;;;;;4958917;29;20034;-69
2023/06/07 04:10:31;;;;;;;8.90;5.28;;;18.50;99.90;;;;;;4959023;29;20031;-69
2023/06/07 04:12:56;;;;;;;7.18;4.13;;;18.50;99.90;;;;;;4957663;29;20039;-69
2023/06/07 04:15:22;;;;;;;9.73;4.30;;;18.40;99.90;;;;;;4958102;29;20027;-69
2023/06/07 04:17:47;;;;;;;8.13;4.30;;;18.50;99.90;;;;;;4958814;29;20081;-69
2023/06/07 04:20:14;;;;;;;5.85;4.07;;;18.50;99.90;;;;;;4957860;29;20063;-69
2023/06/07 04:22:41;;;;;;;8.32;4.70;;;18.40;99.90;;;;;;4957947;29;20030;-69
2023/06/07 04:25:07;;;;;;;7.40;4.40;;;18.40;99.90;;;;;;4957739;29;20068;-69
2023/06/07 04:27:34;;;;;;;5.68;4.25;;;18.40;99.90;;;;;;4957894;28;20031;-69
2023/06/07 04:30:02;;;;;;;11.40;4.32;;;18.50;99.90;;;;;;4962065;29;20023;-69
2023/06/07 04:32:28;;;;;;;7.75;4.45;;;18.50;99.90;;;;;;4961290;29;20023;-69
2023/06/07 04:34:55;;;;;;;10.07;4.07;;;18.50;99.90;;;;;;4961630;29;20161;-69
2023/06/07 04:37:20;;;;;;;7.20;3.90;;;18.50;99.90;;;;;;4961435;29;20035;-69
2023/06/07 04:39:48;;;;;;;9.65;4.60;;;18.50;99.90;;;;;;4961395;29;20031;-69
2023/06/07 04:42:16;;;;;;;11.13;4.70;;;18.50;99.90;;;;;;4961569;29;20023;-69
2023/06/07 04:44:42;;;;;;;6.55;3.72;;;18.60;99.90;;;;;;4962272;29;20030;-69
2023/06/07 04:47:09;;;;;;;8.25;3.95;;;18.60;99.90;;;;;;4961564;29;20086;-69
2023/06/07 04:49:38;;;;;;;6.60;4.63;;;18.60;99.90;;;;;;4961601;29;20058;-69
2023/06/07 04:52:05;;;;;;;7.70;4.03;;;18.60;99.90;;;;;;4961149;29;20030;-69
2023/06/07 04:54:32;;;;;;;8.80;4.10;;;18.50;99.90;;;;;;4962262;29;20062;-69
2023/06/07 04:56:58;;;;;;;10.05;4.10;;;18.50;99.90;;;;;;4961954;29;20019;-69
2023/06/07 04:59:25;;;;;;;6.18;3.47;;;18.50;99.90;;;;;;4962347;29;20043;-69
2023/06/07 05:01:51;;;;;;;8.35;4.25;;;18.70;99.90;;;;;;4961861;29;20078;-69
2023/06/07 05:04:17;;;;;;;7.00;3.75;;;18.80;99.90;;;;;;4961012;29;20027;-69
2023/06/07 05:06:43;;;;;;;9.52;5.00;;;18.90;99.90;;;;;;4962014;29;20028;-69
2023/06/07 05:09:09;;;;;;;8.48;3.83;;;19.00;99.90;;;;;;4961744;29;20038;-69
2023/06/07 05:11:34;;;;;;;8.52;4.15;;;18.90;99.90;;;;;;4961204;29;20039;-69
2023/06/07 05:14:00;;;;;;;5.95;4.32;;;18.80;99.90;;;;;;4960765;29;20038;-69
2023/06/07 05:16:26;;;;;;;11.15;4.30;;;18.90;99.90;;;;;;4961086;29;20034;-69
2023/06/07 05:18:53;;;;;;;10.75;4.47;;;18.70;99.90;;;;;;4960900;29;20033;-69
2023/06/07 05:21:18;;;;;;;7.70;4.45;;;18.70;99.90;;;;;;4960785;29;20096;-69
2023/06/07 05:23:44;;;;;;;7.68;3.60;;;18.70;99.90;;;;;;4960708;29;20062;-69
2023/06/07 05:26:10;;;;;;;7.78;4.68;;;18.60;99.90;;;;;;4961515;29;20031;-69
2023/06/07 05:28:36;;;;;;;6.70;4.40;;;18.70;99.90;;;;;;4961362;29;20027;-69
2023/06/07 05:31:02;;;;;;;7.25;4.60;;;18.70;99.90;;;;;;4961352;29;20061;-69
2023/06/07 05:33:28;;;;;;;10.35;4.45;;;18.70;99.90;;;;;;4960301;29;20057;-69
2023/06/07 05:35:55;;;;;;;8.52;4.30;;;18.80;99.90;;;;;;4960494;29;20023;-69
2023/06/07 05:38:21;;;;;;;6.65;4.40;;;18.90;99.90;;;;;;4961282;29;20092;-69
2023/06/07 05:40:46;;;;;;;11.05;4.40;;;18.90;99.90;;;;;;4960133;28;20031;-69
2023/06/07 05:43:12;;;;;;;10.93;5.35;;;19.00;99.90;;;;;;4961043;29;20042;-69
2023/06/07 05:45:40;;;;;;;9.20;4.47;;;18.90;99.90;;;;;;4960552;29;20031;-69
2023/06/07 05:48:05;;;;;;;6.40;4.00;;;18.90;99.90;;;;;;4960272;29;20038;-69
2023/06/07 05:50:31;;;;;;;8.90;4.22;;;18.70;99.90;;;;;;4960176;29;20091;-69
2023/06/07 05:52:57;;;;;;;6.68;4.18;;;18.80;99.90;;;;;;4960099;29;20023;-69
2023/06/07 05:55:28;;;;;;;10.13;4.65;;;19.00;99.90;;;;;;4960077;29;20055;-69
2023/06/07 05:57:57;;;;;;;6.70;4.45;;;19.00;99.90;;;;;;4960894;29;20054;-69
2023/06/07 06:00:22;;;;;;;8.05;4.55;;;19.00;99.90;;;;;;4960292;29;20024;-69
2023/06/07 06:02:48;;;;;;;9.32;4.13;;;19.10;99.90;;;;;;4960305;29;20023;-69
2023/06/07 06:05:15;;;;;;;11.40;4.25;;;19.20;99.90;;;;;;4960166;29;20016;-69
2023/06/07 06:07:41;;;;;;;9.02;4.63;;;19.30;99.90;;;;;;4960101;29;20034;-69
2023/06/07 06:10:07;;;;;;;6.10;3.85;;;19.20;99.90;;;;;;4959680;29;20034;-69
2023/06/07 06:12:33;;;;;;;12.38;4.15;;;19.30;99.90;;;;;;4960011;29;20032;-69
2023/06/07 06:15:00;;;;;;;12.52;5.40;;;19.30;99.90;;;;;;4960552;29;20074;-69
2023/06/07 06:17:26;;;;;;;12.57;4.63;;;19.30;99.90;;;;;;4960619;29;20034;-69
2023/06/07 06:19:52;;;;;;;10.32;5.88;;;19.20;99.90;;;;;;4960455;29;20026;-69
2023/06/07 06:22:17;;;;;;;8.77;4.57;;;19.30;99.90;;;;;;4959576;29;20019;-69
2023/06/07 06:24:43;;;;;;;12.43;4.97;;;19.30;99.90;;;;;;4959617;29;20039;-69
2023/06/07 06:27:09;;;;;;;9.20;5.07;;;19.60;99.90;;;;;;4959758;29;20023;-69
2023/06/07 06:29:35;;;;;;;7.15;4.35;;;19.80;99.90;;;;;;4960977;29;20030;-69
2023/06/07 06:32:00;;;;;;;10.15;4.93;;;19.80;99.90;;;;;;4959310;29;20024;-69
2023/06/07 06:34:28;;;;;;;8.75;4.50;;;19.90;99.90;;;;;;4960118;29;20120;-69
2023/06/07 06:36:53;;;;;;;8.50;5.20;;;19.80;99.90;;;;;;4959329;29;20066;-69
2023/06/07 06:39:19;;;;;;;7.50;4.70;;;19.70;99.90;;;;;;4959435;29;20027;-69
2023/06/07 06:41:45;;;;;;;9.65;4.07;;;19.70;99.90;;;;;;4959892;29;20035;-69
2023/06/07 06:44:11;;;;;;;8.65;4.45;;;19.80;99.90;;;;;;4959869;29;20035;-69
2023/06/07 06:46:36;;;;;;;6.40;4.10;;;20.00;99.90;;;;;;4959323;29;20027;-69
2023/06/07 06:49:02;;;;;;;7.88;4.43;;;20.10;99.90;;;;;;4960124;29;20027;-69
2023/06/07 06:51:28;;;;;;;11.45;4.75;;;20.10;99.90;;;;;;4959392;28;20027;-69
2023/06/07 06:53:53;;;;;;;10.73;4.90;;;20.20;99.90;;;;;;4959732;29;20027;-69
2023/06/07 06:56:19;;;;;;;9.57;4.78;;;20.20;99.90;;;;;;4958970;29;20023;-69
2023/06/07 06:58:46;;;;;;;8.77;4.70;;;20.30;99.90;;;;;;4959262;29;20054;-69
2023/06/07 07:01:16;;;;;;;11.40;5.50;;;20.40;99.90;;;;;;4958729;29;20050;-69
2023/06/07 07:03:42;;;;;;;7.93;4.75;;;20.40;99.90;;;;;;4959818;29;20037;-69
2023/06/07 07:06:08;;;;;;;10.65;4.32;;;20.50;99.90;;;;;;4959226;29;20019;-69
2023/06/07 07:08:35;;;;;;;7.03;4.43;;;20.60;99.90;;;;;;4958799;29;20090;-69
2023/06/07 07:11:00;;;;;;;7.35;5.25;;;20.60;99.90;;;;;;4989742;23;20033;-70
2023/06/07 07:13:26;;;;;;;13.20;5.07;;;20.40;99.90;;;;;;5018190;28;20035;-71
2023/06/07 07:15:51;;;;;;;8.25;4.95;;;20.30;99.90;;;;;;5033757;28;20080;-71
2023/06/07 07:18:17;;;;;;;7.68;4.68;;;20.30;99.90;;;;;;5018006;28;20021;-71
2023/06/07 07:20:43;;;;;;;8.70;4.85;;;20.40;99.90;;;;;;5033775;28;20026;-71
2023/06/07 07:23:08;;;;;;;6.93;4.35;;;20.40;99.90;;;;;;5017283;28;20041;-71
2023/06/07 07:25:34;;;;;;;11.70;4.93;;;20.40;99.90;;;;;;5017670;28;20032;-72
2023/06/07 07:27:59;;;;;;;7.72;4.53;;;20.50;99.90;;;;;;5016871;28;20030;-72
2023/06/07 07:30:25;;;;;;;8.18;5.13;;;20.70;99.90;;;;;;5016955;28;20030;-72
2023/06/07 07:32:53;;;;;;;7.70;4.45;;;20.90;99.90;;;;;;5017421;28;20090;-72
2023/06/07 07:35:18;;;;;;;7.75;4.63;;;21.00;99.90;;;;;;5017843;28;20026;-75
2023/06/07 07:37:44;;;;;;;8.05;5.35;;;20.90;99.90;;;;;;5017789;28;20022;-74
2023/06/07 07:40:12;;;;;;;9.43;5.28;;;20.80;99.90;;;;;;5017230;28;20029;-74
2023/06/07 07:42:38;;;;;;;9.77;4.97;;;20.80;99.90;;;;;;5017827;28;20029;-74
2023/06/07 07:45:05;;;;;;;7.90;4.65;;;20.70;99.90;;;;;;5017604;28;20026;-73
2023/06/07 07:47:30;;;;;;;8.57;4.82;;;20.70;99.90;;;;;;5016691;28;20029;-74
2023/06/07 07:49:56;;;;;;;16.95;5.45;;;20.70;99.90;;;;;;5017320;28;20057;-74
2023/06/07 07:52:22;;;;;;;10.13;4.60;;;20.70;99.90;;;;;;5016689;28;20028;-74
2023/06/07 07:54:47;;;;;;;13.18;4.75;;;20.80;99.90;;;;;;5016388;28;20034;-74
2023/06/07 07:57:13;;;;;;;8.20;4.72;;;20.80;99.90;;;;;;5017282;28;20076;-73
2023/06/07 07:59:39;;;;;;;9.77;5.07;;;20.70;99.90;;;;;;5016488;28;20090;-74
2023/06/07 08:02:05;;;;;;;11.07;4.43;;;20.70;99.90;;;;;;5016204;28;20105;-74
2023/06/07 08:04:30;;;;;;;7.47;4.47;;;20.80;99.90;;;;;;5016777;28;20030;-73
2023/06/07 08:06:56;;;;;;;7.05;4.63;;;20.70;99.90;;;;;;5016530;28;20022;-72
2023/06/07 08:09:21;;;;;;;12.18;4.50;;;20.70;99.90;;;;;;5017331;28;20037;-72
2023/06/07 08:11:47;;;;;;;13.07;5.07;;;20.70;99.90;;;;;;5016101;28;20125;-72
2023/06/07 08:14:14;;;;;;;6.75;4.68;;;20.90;99.90;;;;;;5016277;28;20080;-72
2023/06/07 08:16:39;;;;;;;17.95;5.25;;;21.00;99.90;;;;;;5017072;28;20029;-73
2023/06/07 08:19:07;;;;;;;12.80;5.38;;;21.10;99.90;;;;;;5016230;28;20026;-73
2023/06/07 08:21:33;;;;;;;10.23;4.95;;;21.20;99.90;;;;;;5016367;28;20045;-73
2023/06/07 08:23:59;;;;;;;9.40;4.55;;;21.20;99.90;;;;;;5016160;28;20030;-73
2023/06/07 08:26:25;;;;;;;14.65;5.88;;;21.30;99.90;;;;;;5016310;28;20022;-72
2023/06/07 08:28:51;;;;;;;12.90;4.80;;;21.30;99.90;;;;;;5015992;28;20088;-72
2023/06/07 08:31:17;;;;;;;9.15;4.05;;;21.40;99.90;;;;;;5017290;28;20030;-72
2023/06/07 08:33:43;;;;;;;11.30;4.68;;;21.60;99.90;;;;;;5016073;28;20032;-72
2023/06/07 08:36:08;;;;;;;7.00;4.82;;;21.80;99.90;;;;;;5016443;28;20018;-72
2023/06/07 08:38:37;;;;;;;10.10;4.78;;;22.00;99.90;;;;;;5016074;28;20054;-72
2023/06/07 08:41:03;;;;;;;8.45;4.55;;;22.10;99.90;;;;;;5016081;28;20022;-72
2023/06/07 08:43:28;;;;;;;10.13;4.80;;;22.10;99.90;;;;;;5016838;28;20018;-72
2023/06/07 08:45:56;;;;;;;12.30;5.25;;;22.10;99.90;;;;;;5016097;28;20026;-72
2023/06/07 08:48:22;;;;;;;10.73;5.38;;;22.10;99.90;;;;;;5016189;28;20041;-73
2023/06/07 08:50:50;;;;;;;7.57;4.75;;;22.20;99.90;;;;;;5016077;28;20026;-73
2023/06/07 08:53:23;;;;;;;7.85;4.68;;;22.20;99.90;;;;;;5016433;28;20125;-73
2023/06/07 08:55:49;;;;;;;10.73;5.07;;;22.40;99.90;;;;;;5015889;28;20022;-73
2023/06/07 08:58:16;;;;;;;13.38;6.32;;;22.40;99.90;;;;;;5016796;28;20041;-72
2023/06/07 09:00:42;;;;;;;13.38;5.78;;;22.50;99.90;;;;;;5015937;28;20061;-72
2023/06/07 09:03:07;;;;;;;10.07;5.28;;;22.50;99.90;;;;;;5015824;28;20111;-73
2023/06/07 09:05:33;;;;;;;13.80;5.78;;;22.60;99.90;;;;;;5015805;28;20080;-73
2023/06/07 09:07:59;;;;;;;10.55;6.38;;;22.70;99.90;;;;;;5015740;28;20069;-72
2023/06/07 09:10:25;;;;;;;7.82;5.18;;;22.80;99.90;;;;;;5016567;28;20093;-73
2023/06/07 09:12:50;;;;;;;10.32;5.63;;;22.80;99.90;;;;;;5015513;28;20030;-73
2023/06/07 09:15:18;;;;;;;11.73;5.50;;;23.00;99.90;;;;;;5018092;28;20076;-72
2023/06/07 09:17:58;;;;;;;7.20;5.40;;;23.10;99.90;;;;;;5019135;28;20018;-72
2023/06/07 09:20:28;;;;;;;8.73;5.15;;;23.40;99.90;;;;;;5020057;28;20028;-72
2023/06/07 09:22:59;;;;;;;8.48;5.55;;;23.70;99.90;;;;;;5019836;28;20094;-72
2023/06/07 09:25:26;;;;;;;12.57;5.90;;;23.70;99.90;;;;;;5019188;28;20037;-72
2023/06/07 09:27:53;;;;;;;6.95;5.90;;;23.70;99.90;;;;;;5019206;28;20271;-72
2023/06/07 09:30:19;;;;;;;15.27;5.57;;;23.50;99.90;;;;;;5019910;28;20071;-72
2023/06/07 09:32:45;;;;;;;11.88;6.07;;;23.40;99.90;;;;;;5019879;28;20014;-72
2023/06/07 09:35:15;;;;;;;18.48;5.85;;;23.20;99.90;;;;;;5018851;28;20030;-72
2023/06/07 09:37:45;;;;;;;12.57;6.05;;;23.20;99.90;;;;;;5019733;28;20092;-72
2023/06/07 09:40:13;;;;;;;8.68;5.85;;;23.00;99.90;;;;;;5019082;28;20028;-72
2023/06/07 09:42:39;;;;;;;10.18;5.45;;;22.90;99.90;;;;;;5019623;28;20022;-72
2023/06/07 09:45:15;;;;;;;10.73;5.70;;;23.00;99.90;;;;;;5018692;28;20093;-72
2023/06/07 09:47:42;;;;;;;8.82;6.25;;;23.00;99.90;;;;;;5019655;28;20100;-72
2023/06/07 09:50:14;;;;;;;8.77;4.70;;;22.90;99.90;;;;;;5019013;28;20029;-72
2023/06/07 09:52:40;;;;;;;13.10;5.22;;;23.00;99.90;;;;;;5018545;28;20033;-72
2023/06/07 09:55:08;;;;;;;9.57;5.10;;;23.30;99.90;;;;;;5018649;28;20029;-72
2023/06/07 09:57:36;;;;;;;10.00;5.47;;;23.40;99.90;;;;;;5018974;28;20057;-72
2023/06/07 10:00:14;;;;;;;9.45;5.60;;;23.50;99.90;;;;;;5018780;28;20117;-72
2023/06/07 10:02:42;;;;;;;11.45;4.93;;;23.50;99.90;;;;;;5019268;28;20022;-70
2023/06/07 10:05:09;;;;;;;7.65;5.03;;;23.60;99.90;;;;;;5018517;28;20065;-70
2023/06/07 10:07:41;;;;;;;10.68;5.00;;;23.90;99.90;;;;;;5019220;28;20076;-70
2023/06/07 10:10:11;;;;;;;11.57;5.85;;;24.10;99.90;;;;;;5018705;28;20080;-70
2023/06/07 10:12:40;;;;;;;6.05;4.53;;;24.20;99.90;;;;;;5018372;28;20038;-70
2023/06/07 10:15:09;;;;;;;6.32;4.70;;;24.00;99.90;;;;;;5017980;28;20112;-70
2023/06/07 10:17:46;;;;;;;12.43;4.38;;;23.80;99.90;;;;;;5018000;28;20052;-70
2023/06/07 10:20:18;;;;;;;9.60;6.38;;;23.80;99.90;;;;;;5019050;28;20037;-70
2023/06/07 10:22:46;;;;;;;5.47;4.22;;;23.80;99.90;;;;;;5018139;28;20025;-70
2023/06/07 10:25:23;;;;;;;10.02;4.10;;;24.20;99.90;;;;;;5018964;28;20022;-70
2023/06/07 10:27:48;;;;;;;5.70;3.88;;;24.50;99.90;;;;;;5018251;28;20026;-70
2023/06/07 10:30:16;;;;;;;5.90;3.97;;;24.60;99.90;;;;;;5017882;28;20037;-70
2023/06/07 10:32:44;;;;;;;10.10;4.20;;;24.70;99.90;;;;;;5018927;28;20049;-70
2023/06/07 10:35:11;;;;;;;4.53;4.05;;;25.00;99.90;;;;;;5017654;28;20026;-70
2023/06/07 10:37:37;;;;;;;4.88;3.90;;;25.30;99.90;;;;;;5017869;28;20045;-70
2023/06/07 10:40:10;;;;;;;5.15;4.03;;;25.50;99.90;;;;;;5018621;28;20018;-70
2023/06/07 10:42:40;;;;;;;6.05;3.58;;;25.10;99.90;;;;;;5018539;28;20050;-70
2023/06/07 10:45:06;;;;;;;9.18;3.78;;;24.80;99.90;;;;;;5018700;28;20022;-70
2023/06/07 10:47:31;;;;;;;6.70;4.28;;;24.60;99.90;;;;;;5017492;28;20034;-70
2023/06/07 10:49:58;;;;;;;4.93;4.43;;;24.00;99.90;;;;;;5017380;28;20033;-70
2023/06/07 10:52:26;;;;;;;5.28;3.97;;;23.70;99.90;;;;;;5017563;28;20061;-70
2023/06/07 10:54:52;;;;;;;5.10;4.57;;;24.10;99.90;;;;;;5018264;28;20026;-70
2023/06/07 10:57:34;;;;;;;5.35;4.00;;;24.20;99.90;;;;;;5017545;28;20080;-70
2023/06/07 11:00:30;;;;;;;6.47;4.57;;;24.10;99.90;;;;;;5017360;28;20022;-70
2023/06/07 11:03:04;;;;;;;6.05;4.50;;;24.20;99.90;;;;;;5018177;28;20022;-70
2023/06/07 11:05:52;;;;;;;5.10;4.43;;;24.30;99.90;;;;;;5018066;28;20018;-70
2023/06/07 11:08:27;;;;;;;6.10;4.55;;;24.00;99.90;;;;;;5017117;28;20022;-70
2023/06/07 11:11:01;;;;;;;8.00;4.18;;;23.80;99.90;;;;;;5016956;28;20033;-70
2023/06/07 11:13:47;;;;;;;4.78;3.40;;;23.80;99.90;;;;;;5016911;28;20022;-71
2023/06/07 11:16:24;;;;;;;6.57;4.15;;;24.00;99.90;;;;;;5016809;28;20117;-70
2023/06/07 11:18:54;;;;;;;8.73;5.40;;;23.90;99.90;;;;;;5017897;28;20044;-70
2023/06/07 11:21:19;;;;;;;5.07;4.40;;;23.70;99.90;;;;;;5016964;28;20018;-71
2023/06/07 11:23:45;;;;;;;4.93;4.10;;;24.10;99.90;;;;;;5017712;28;20033;-70
2023/06/07 11:26:12;;;;;;;6.68;3.88;;;24.40;99.90;;;;;;5017250;28;20144;-71
2023/06/07 11:28:40;;;;;;;5.47;4.25;;;24.30;99.90;;;;;;5018185;28;20026;-70
2023/06/07 11:31:10;;;;;;;5.32;4.40;;;24.40;99.90;;;;;;5016750;28;20084;-71
2023/06/07 11:33:36;;;;;;;4.77;4.03;;;25.00;99.90;;;;;;5016572;28;20022;-71
2023/06/07 11:36:05;;;;;;;6.90;4.50;;;25.60;99.90;;;;;;5017598;28;20032;-71
2023/06/07 11:38:31;;;;;;;6.05;4.15;;;25.90;99.90;;;;;;5016735;28;20026;-71
2023/06/07 11:40:57;;;;;;;5.30;4.80;;;25.70;99.90;;;;;;5016453;28;20081;-71
2023/06/07 11:43:25;;;;;;;4.90;4.32;;;25.60;99.90;;;;;;5016926;28;20060;-71
2023/06/07 11:45:55;;;;;;;6.88;4.05;;;25.50;99.90;;;;;;5017530;28;20026;-71
2023/06/07 11:48:25;;;;;;;6.30;4.20;;;25.50;99.90;;;;;;5016542;28;20083;-71
2023/06/07 11:50:50;;;;;;;8.35;6.30;;;25.40;99.90;;;;;;5016735;28;20033;-71
2023/06/07 11:53:16;;;;;;;15.80;6.82;;;25.30;99.90;;;;;;5016707;28;20022;-71
2023/06/07 11:55:41;;;;;;;9.70;6.07;;;25.10;99.90;;;;;;5017346;28;20088;-71
2023/06/07 11:58:07;;;;;;;7.97;6.18;;;24.80;99.90;;;;;;5017038;28;20037;-71
2023/06/07 12:00:35;;;;;;;10.13;6.53;;;24.80;99.90;;;;;;5016538;28;20029;-71
2023/06/07 12:03:02;;;;;;;8.00;6.00;;;24.80;99.90;;;;;;5016336;28;20029;-71
2023/06/07 12:05:31;;;;;;;11.18;6.43;;;24.90;99.90;;;;;;5016787;28;20032;-71
2023/06/07 12:08:04;;;;;;;9.32;6.05;;;25.00;99.90;;;;;;5016672;28;20112;-71
2023/06/07 12:10:38;;;;;;;9.80;5.93;;;25.10;99.90;;;;;;5016237;28;20033;-71
2023/06/07 12:13:11;;;;;;;10.43;6.40;;;25.50;99.90;;;;;;5016048;28;20068;-71
2023/06/07 12:15:44;;;;;;;11.30;6.55;;;25.40;99.90;;;;;;5016932;28;20084;-71
2023/06/07 12:18:15;;;;;;;9.30;6.07;;;25.20;99.90;;;;;;5017318;28;20021;-71
2023/06/07 12:20:42;;;;;;;12.97;6.37;;;24.80;99.90;;;;;;5017026;28;20050;-71
2023/06/07 12:23:10;;;;;;;13.30;7.35;;;24.80;99.90;;;;;;5016510;28;20268;-71
2023/06/07 12:25:36;;;;;;;8.25;6.32;;;24.60;99.90;;;;;;5016187;28;20022;-71
2023/06/07 12:28:08;;;;;;;8.73;7.18;;;24.30;99.90;;;;;;5017230;28;20037;-70
2023/06/07 12:30:37;;;;;;;12.10;6.55;;;24.10;99.90;;;;;;5016780;28;20018;-70
2023/06/07 12:33:03;;;;;;;14.25;6.80;;;24.00;99.90;;;;;;5015847;28;20034;-71
2023/06/07 12:35:39;;;;;;;9.15;7.03;;;24.00;99.90;;;;;;5016490;28;20072;-71
2023/06/07 12:38:06;;;;;;;9.10;7.38;;;23.90;99.90;;;;;;5016855;28;20025;-71
2023/06/07 12:40:32;;;;;;;8.32;6.57;;;23.90;99.90;;;;;;5016370;28;20022;-71
2023/06/07 12:42:57;;;;;;;8.68;6.53;;;23.80;99.90;;;;;;5015977;28;20026;-71
2023/06/07 12:45:23;;;;;;;14.07;6.07;;;23.90;99.90;;;;;;5015982;28;20033;-71
2023/06/07 12:47:49;;;;;;;9.95;6.22;;;24.30;99.90;;;;;;5016119;28;20017;-71
2023/06/07 12:50:14;;;;;;;8.48;5.95;;;24.60;99.90;;;;;;5019252;28;20028;-71